Time;durP1;ratioP1;P1;durP2;ratioP2;P2;SDS_P1;SDS_P2;PMS_P1;PMS_P2;Temp;Humidity;BMP_temperature;BMP_pressure;BME280_temperature;BME280_humidity;BME280_pressure;Samples;Min_cycle;Max_cycle;Signal;HPM_P1;HPM_P2
2023/05/19 00:00:43;;;;;;;;;5.00;3.25;;;;;22.37;37.33;101764.94;5073640;27;45552;-70
2023/05/19 00:03:09;;;;;;;;;2.25;2.25;;;;;22.36;37.03;101767.69;5078116;27;47163;-70
2023/05/19 00:05:39;;;;;;;;;5.00;4.00;;;;;22.34;37.28;101765.09;5069616;27;45321;-70
2023/05/19 00:08:06;;;;;;;;;3.25;3.25;;;;;22.32;37.33;101760.81;5069790;28;45411;-71
2023/05/19 00:10:32;;;;;;;;;4.75;4.75;;;;;22.33;37.30;101767.88;5073905;28;73524;-70
2023/05/19 00:12:57;;;;;;;;;3.50;3.50;;;;;22.35;37.04;101769.50;5067673;27;45530;-70
2023/05/19 00:15:23;;;;;;;;;4.25;3.00;;;;;22.34;37.36;101764.25;5071238;27;45391;-70
2023/05/19 00:17:48;;;;;;;;;6.00;4.25;;;;;22.31;36.97;101759.97;5068551;28;45398;-70
2023/05/19 00:20:14;;;;;;;;;3.00;3.00;;;;;22.33;37.31;101766.06;5076668;27;67584;-70
2023/05/19 00:22:42;;;;;;;;;4.25;4.25;;;;;22.32;37.27;101767.00;5080424;27;45412;-70
2023/05/19 00:25:08;;;;;;;;;3.50;3.50;;;;;22.31;37.28;101762.66;5067731;27;45507;-71
2023/05/19 00:27:34;;;;;;;;;6.25;6.00;;;;;22.31;37.30;101767.97;5054231;28;45400;-71
2023/05/19 00:29:59;;;;;;;;;5.00;5.00;;;;;22.28;37.43;101756.63;5075362;28;63037;-71
2023/05/19 00:32:24;;;;;;;;;5.00;4.00;;;;;22.30;37.32;101762.72;5071522;28;46701;-71
2023/05/19 00:34:50;;;;;;;;;5.25;4.75;;;;;22.30;37.34;101757.41;5064635;27;74654;-71
2023/05/19 00:37:15;;;;;;;;;7.25;6.00;;;;;22.30;37.38;101760.06;5064488;28;63312;-71
2023/05/19 00:39:40;;;;;;;;;3.50;2.50;;;;;22.30;37.34;101760.91;5066240;28;45358;-70
2023/05/19 00:42:06;;;;;;;;;4.00;4.00;;;;;22.30;37.47;101760.06;5076241;27;46411;-71
2023/05/19 00:44:31;;;;;;;;;4.00;3.25;;;;;22.29;37.13;101755.66;5008146;28;1135237;-70
2023/05/19 00:46:56;;;;;;;;;3.25;3.25;;;;;22.29;37.03;101758.34;5062985;28;54441;-71
2023/05/19 00:49:22;;;;;;;;;4.00;4.00;;;;;22.29;37.16;101753.88;5070128;28;64609;-71
2023/05/19 00:51:47;;;;;;;;;4.50;4.00;;;;;22.28;37.34;101753.97;5072025;28;45432;-71
2023/05/19 00:54:13;;;;;;;;;4.25;3.25;;;;;22.28;37.64;101745.97;5076660;27;45381;-71
2023/05/19 00:56:38;;;;;;;;;5.50;4.50;;;;;22.26;37.41;101751.34;5061063;28;45879;-71
2023/05/19 00:59:04;;;;;;;;;4.00;4.00;;;;;22.27;36.97;101747.75;5071851;28;74327;-70
2023/05/19 01:01:31;;;;;;;;;4.75;4.75;;;;;22.25;37.54;101741.63;5046721;28;62459;-71
2023/05/19 01:03:57;;;;;;;;;7.75;5.00;;;;;22.27;37.10;101752.25;5065645;27;45990;-71
2023/05/19 01:06:24;;;;;;;;;5.00;5.00;;;;;22.27;37.25;101750.41;5068791;28;45463;-71
2023/05/19 01:08:50;;;;;;;;;4.00;4.00;;;;;22.24;37.44;101745.25;5062576;28;45387;-70
2023/05/19 01:11:15;;;;;;;;;4.75;4.75;;;;;22.25;37.18;101740.78;5064409;28;45477;-70
2023/05/19 01:13:41;;;;;;;;;4.50;4.50;;;;;22.24;37.27;101739.06;5055374;28;45700;-70
2023/05/19 01:16:11;;;;;;;;;4.50;4.00;;;;;22.25;37.02;101740.78;5074968;27;59747;-70
2023/05/19 01:19:03;;;;;;;;;4.75;3.75;;;;;22.22;37.38;101743.63;5072131;28;45553;-70
2023/05/19 01:22:00;;;;;;;;;4.50;4.00;;;;;22.24;37.55;101749.72;5075413;28;46203;-70
2023/05/19 01:24:33;;;;;;;;;6.50;4.75;;;;;22.24;37.01;101739.06;5068004;27;45876;-70
2023/05/19 01:27:17;;;;;;;;;5.50;4.50;;;;;22.21;37.05;101734.78;5080739;27;45314;-71
2023/05/19 01:30:07;;;;;;;;;4.75;3.50;;;;;22.23;36.98;101743.53;5073542;28;45476;-70
2023/05/19 01:32:33;;;;;;;;;7.25;4.25;;;;;22.22;37.17;101738.28;5064983;28;45380;-70
2023/05/19 01:34:59;;;;;;;;;4.75;4.75;;;;;22.21;37.61;101732.09;5073081;27;45449;-71
2023/05/19 01:37:26;;;;;;;;;5.00;4.75;;;;;22.19;37.20;101728.69;5074475;28;45434;-71
2023/05/19 01:39:51;;;;;;;;;4.25;4.25;;;;;22.20;36.92;101730.38;5070423;28;45394;-71
2023/05/19 01:42:16;;;;;;;;;5.00;4.25;;;;;22.19;37.09;101732.19;5073075;28;68302;-71
2023/05/19 01:44:42;;;;;;;;;5.00;5.00;;;;;22.18;37.52;101725.13;5068974;27;67880;-71
2023/05/19 01:47:08;;;;;;;;;4.00;4.00;;;;;22.21;37.20;101733.94;5059097;28;45664;-71
2023/05/19 01:49:34;;;;;;;;;4.00;3.75;;;;;22.20;37.15;101730.38;5069711;28;45635;-71
2023/05/19 01:51:59;;;;;;;;;5.00;4.00;;;;;22.16;37.01;101720.84;5065801;28;47076;-71
2023/05/19 01:54:24;;;;;;;;;3.50;2.25;;;;;22.18;37.33;101729.63;5086530;27;68487;-71
2023/05/19 01:57:03;;;;;;;;;4.00;4.00;;;;;22.19;36.99;101728.69;5058846;28;65150;-71
2023/05/19 01:59:42;;;;;;;;;5.00;5.00;;;;;22.16;37.38;101729.72;5059508;28;45521;-71
2023/05/19 02:02:27;;;;;;;;;7.00;5.00;;;;;22.12;37.64;101720.19;5069978;28;46395;-71
2023/05/19 02:05:05;;;;;;;;;5.00;5.00;;;;;22.18;37.04;101740.28;5087078;27;45498;-71
2023/05/19 02:07:41;;;;;;;;;3.50;3.00;;;;;22.16;37.00;101735.03;5063729;28;45267;-71
2023/05/19 02:10:13;;;;;;;;;4.50;4.50;;;;;22.16;37.03;101728.84;5072474;28;45477;-71
2023/05/19 02:12:39;;;;;;;;;4.50;4.00;;;;;22.16;37.40;101728.84;5070293;28;46314;-71
2023/05/19 02:15:11;;;;;;;;;7.25;4.25;;;;;22.14;37.15;101722.75;5057136;28;57315;-71
2023/05/19 02:17:40;;;;;;;;;7.00;5.25;;;;;22.15;37.25;101730.69;5062006;28;45415;-71
2023/05/19 02:20:07;;;;;;;;;4.25;3.50;;;;;22.16;36.96;101731.53;5064293;28;45850;-71
2023/05/19 02:22:33;;;;;;;;;6.50;3.75;;;;;22.11;36.96;101722.94;5071647;28;48219;-71
2023/05/19 02:24:59;;;;;;;;;8.75;4.25;;;;;22.14;37.16;101725.44;5051256;28;45505;-71
2023/05/19 02:27:25;;;;;;;;;4.00;3.75;;;;;22.12;37.25;101720.19;5068451;28;45580;-71
2023/05/19 02:29:50;;;;;;;;;4.00;3.75;;;;;22.13;37.41;101723.69;5052323;28;45806;-71
2023/05/19 02:32:16;;;;;;;;;7.00;5.25;;;;;22.14;37.09;101728.09;5069976;28;45498;-71
2023/05/19 02:34:44;;;;;;;;;5.00;4.00;;;;;22.10;36.96;101718.56;5074392;27;45477;-71
2023/05/19 02:37:13;;;;;;;;;3.00;3.00;;;;;22.13;37.24;101723.69;5074941;28;45275;-71
2023/05/19 02:39:39;;;;;;;;;5.00;4.50;;;;;22.12;37.28;101730.84;5061592;28;45681;-71
2023/05/19 02:42:04;;;;;;;;;4.00;3.00;;;;;22.12;37.15;101720.19;5061225;28;48298;-71
2023/05/19 02:44:29;;;;;;;;;5.00;4.00;;;;;22.12;37.38;101724.66;5071943;28;45664;-72
2023/05/19 02:46:55;;;;;;;;;7.75;4.50;;;;;22.10;37.54;101722.09;5067682;28;58423;-71
2023/05/19 02:49:20;;;;;;;;;4.50;4.50;;;;;22.09;37.05;101715.03;5053886;28;73670;-71
2023/05/19 02:51:45;;;;;;;;;5.00;4.25;;;;;22.09;37.40;101715.03;5064894;28;73566;-71
2023/05/19 02:54:11;;;;;;;;;3.25;3.25;;;;;22.08;37.52;101716.00;5074810;28;69101;-72
2023/05/19 02:56:36;;;;;;;;;6.75;3.75;;;;;22.08;37.21;101716.00;5068483;28;66751;-72
2023/05/19 02:59:01;;;;;;;;;5.00;5.00;;;;;22.10;37.43;101719.44;5069712;28;66746;-72
2023/05/19 03:01:27;;;;;;;;;4.25;3.25;;;;;22.09;37.49;101714.19;5052909;28;47008;-71
2023/05/19 03:03:52;;;;;;;;;4.25;3.25;;;;;22.07;37.25;101708.94;5067640;27;45489;-72
2023/05/19 03:06:17;;;;;;;;;5.25;4.50;;;;;22.07;37.16;101711.59;5069007;28;45574;-71
2023/05/19 03:08:43;;;;;;;;;4.00;3.00;;;;;22.07;36.95;101708.09;5059811;28;64962;-72
2023/05/19 03:11:09;;;;;;;;;5.00;5.00;;;;;22.08;37.33;101713.34;5069921;28;47021;-71
2023/05/19 03:13:34;;;;;;;;;5.00;5.00;;;;;22.06;37.01;101709.91;5084939;27;47080;-72
2023/05/19 03:16:00;;;;;;;;;6.00;4.50;;;;;22.08;37.34;101712.44;5063635;27;45427;-71
2023/05/19 03:18:26;;;;;;;;;6.25;3.25;;;;;22.05;37.18;101707.34;5053329;28;45511;-71
2023/05/19 03:20:52;;;;;;;;;5.75;5.75;;;;;22.04;37.05;101706.44;5050569;28;48123;-71
2023/05/19 03:23:19;;;;;;;;;5.75;5.25;;;;;22.04;37.52;101708.25;5063468;28;45358;-71
2023/05/19 03:25:44;;;;;;;;;6.75;5.25;;;;;22.04;37.46;101705.59;5072195;27;45555;-72
2023/05/19 03:28:09;;;;;;;;;5.00;4.00;;;;;22.04;37.01;101709.13;5070589;28;61370;-71
2023/05/19 03:30:35;;;;;;;;;5.50;4.25;;;;;22.04;37.05;101716.25;5072591;28;71858;-72
2023/05/19 03:33:00;;;;;;;;;6.00;4.00;;;;;22.04;36.85;101721.59;5045903;28;45644;-71
2023/05/19 03:35:26;;;;;;;;;6.25;4.25;;;;;22.04;37.31;101718.94;5073186;28;57150;-71
2023/05/19 03:37:51;;;;;;;;;5.50;4.75;;;;;22.04;36.87;101716.25;5092112;27;45458;-71
2023/05/19 03:40:17;;;;;;;;;3.75;3.00;;;;;22.02;37.33;101713.69;5071728;28;68299;-72
2023/05/19 03:42:43;;;;;;;;;5.00;5.00;;;;;22.02;37.47;101718.16;5058436;28;45467;-72
2023/05/19 03:45:08;;;;;;;;;3.00;2.25;;;;;22.02;37.17;101719.00;5068505;27;46803;-72
2023/05/19 03:47:34;;;;;;;;;5.50;4.25;;;;;22.02;36.84;101712.84;5063129;28;45473;-72
2023/05/19 03:49:59;;;;;;;;;5.50;4.00;;;;;22.02;37.46;101715.50;5075948;28;73104;-72
2023/05/19 03:52:25;;;;;;;;;6.00;4.00;;;;;22.01;36.95;101714.66;5063557;28;45517;-72
2023/05/19 03:54:51;;;;;;;;;4.75;4.00;;;;;22.02;37.24;101718.16;5073554;27;45599;-71
2023/05/19 03:57:17;;;;;;;;;6.25;4.50;;;;;21.99;37.42;101722.72;5074682;27;45810;-71
2023/05/19 03:59:42;;;;;;;;;6.50;4.00;;;;;22.00;36.83;101719.09;5063553;28;75992;-71
2023/05/19 04:02:08;;;;;;;;;4.50;4.25;;;;;22.00;37.00;101718.25;5061956;28;45583;-71
2023/05/19 04:04:33;;;;;;;;;4.50;4.50;;;;;21.99;37.00;101714.75;5073798;27;46055;-71
2023/05/19 04:06:58;;;;;;;;;5.50;4.75;;;;;21.98;37.01;101721.00;5060468;28;70627;-71
2023/05/19 04:09:24;;;;;;;;;4.00;2.00;;;;;21.98;37.24;101723.66;5074668;28;46176;-71
2023/05/19 04:11:49;;;;;;;;;6.00;4.50;;;;;21.97;37.18;101719.31;5058768;28;45544;-71
2023/05/19 04:14:15;;;;;;;;;5.00;5.00;;;;;21.98;37.33;101728.16;5069620;27;62416;-71
2023/05/19 04:16:40;;;;;;;;;5.00;5.00;;;;;21.97;37.33;101723.75;5079659;28;57591;-71
2023/05/19 04:19:06;;;;;;;;;5.00;5.00;;;;;21.98;37.35;101722.81;5075810;28;45631;-71
2023/05/19 04:21:31;;;;;;;;;7.25;4.25;;;;;21.96;36.74;101720.25;5073562;28;45239;-71
2023/05/19 04:23:58;;;;;;;;;4.00;4.00;;;;;21.96;37.41;101724.72;5075005;27;56127;-71
2023/05/19 04:26:25;;;;;;;;;6.00;3.25;;;;;21.96;37.02;101720.25;5051506;28;45597;-72
2023/05/19 04:28:51;;;;;;;;;9.25;6.00;;;;;21.96;37.10;101725.56;5088131;27;48486;-71
2023/05/19 04:31:16;;;;;;;;;7.50;5.00;;;;;21.95;37.01;101715.84;5076354;28;45502;-71
2023/05/19 04:33:42;;;;;;;;;4.25;4.00;;;;;21.94;36.75;101718.63;5071486;27;45329;-72
2023/05/19 04:36:09;;;;;;;;;7.25;5.00;;;;;21.95;37.18;101715.84;5070782;28;45769;-71
2023/05/19 04:38:38;;;;;;;;;4.00;3.50;;;;;21.93;37.23;101717.75;5068579;28;45537;-71
2023/05/19 04:41:05;;;;;;;;;7.50;5.50;;;;;21.94;37.11;101726.63;5066284;28;45341;-71
2023/05/19 04:43:30;;;;;;;;;6.00;4.25;;;;;21.94;37.23;101721.31;5065797;28;45253;-72
2023/05/19 04:45:56;;;;;;;;;5.75;4.50;;;;;21.94;37.22;101723.97;5058235;28;45572;-71
2023/05/19 04:48:22;;;;;;;;;5.25;5.25;;;;;21.94;37.14;101721.31;5073261;28;46086;-71
2023/05/19 04:50:48;;;;;;;;;4.75;3.25;;;;;21.93;37.14;101724.91;5056271;28;45304;-72
2023/05/19 04:53:14;;;;;;;;;6.00;4.00;;;;;21.92;37.17;101726.72;5060731;28;45363;-72
2023/05/19 04:55:40;;;;;;;;;4.00;4.00;;;;;21.93;37.07;101731.06;5059410;28;45399;-71
2023/05/19 04:58:05;;;;;;;;;6.25;5.75;;;;;21.92;36.89;101732.03;5075542;28;46306;-71
2023/05/19 05:00:31;;;;;;;;;5.75;5.25;;;;;21.94;36.88;101735.47;5077728;27;45397;-71
2023/05/19 05:02:56;;;;;;;;;5.25;4.75;;;;;21.92;36.96;101739.16;5070166;28;45458;-71
2023/05/19 05:05:22;;;;;;;;;6.00;3.00;;;;;21.91;37.31;101742.78;5073988;27;45211;-72
2023/05/19 05:07:48;;;;;;;;;4.75;4.25;;;;;21.89;37.14;101740.22;5072533;27;45453;-71
2023/05/19 05:10:13;;;;;;;;;4.25;4.25;;;;;21.91;37.09;101740.97;5068684;28;45502;-71
2023/05/19 05:12:39;;;;;;;;;3.00;3.00;;;;;21.91;36.77;101740.97;5057814;27;45349;-71
2023/05/19 05:15:05;;;;;;;;;5.25;4.00;;;;;21.91;37.20;101748.97;5077955;28;45476;-71
2023/05/19 05:17:32;;;;;;;;;6.75;4.75;;;;;21.90;36.88;101746.38;5059072;28;48136;-71
2023/05/19 05:19:58;;;;;;;;;4.00;4.00;;;;;21.90;37.08;101743.72;5086715;27;45797;-71
2023/05/19 05:22:23;;;;;;;;;9.75;5.50;;;;;21.90;36.79;101749.06;5076609;27;45652;-71
2023/05/19 05:24:49;;;;;;;;;6.25;3.75;;;;;21.89;36.80;101750.88;5071988;27;45526;-71
2023/05/19 05:27:15;;;;;;;;;6.00;5.00;;;;;21.91;36.76;101759.63;5076016;27;46985;-71
2023/05/19 05:29:43;;;;;;;;;5.50;5.00;;;;;21.89;36.78;101750.88;5064638;28;45653;-71
2023/05/19 05:32:08;;;;;;;;;6.25;4.00;;;;;21.90;37.10;101762.38;5063237;27;45827;-71
2023/05/19 05:34:34;;;;;;;;;8.50;5.00;;;;;21.90;36.78;101763.25;5072346;27;72777;-71
2023/05/19 05:37:00;;;;;;;;;4.25;4.25;;;;;21.91;37.16;101756.97;5089085;27;46173;-71
2023/05/19 05:39:26;;;;;;;;;5.25;4.00;;;;;21.89;37.06;101764.19;5060228;27;68342;-71
2023/05/19 05:41:52;;;;;;;;;5.00;4.50;;;;;21.90;37.16;101763.25;5063070;27;45479;-71
2023/05/19 05:44:17;;;;;;;;;7.00;6.00;;;;;21.88;37.08;101758.94;5064131;27;64447;-71
2023/05/19 05:46:43;;;;;;;;;4.50;4.50;;;;;21.89;36.88;101763.34;5069298;28;65103;-71
2023/05/19 05:49:12;;;;;;;;;5.25;5.00;;;;;21.88;36.99;101754.47;5074111;28;45590;-71
2023/05/19 05:51:37;;;;;;;;;7.50;5.50;;;;;21.89;37.02;101760.69;5063752;28;45340;-71
2023/05/19 05:54:05;;;;;;;;;3.25;3.25;;;;;21.90;36.98;101768.59;5069302;27;45431;-71
2023/05/19 05:56:32;;;;;;;;;8.00;6.75;;;;;21.88;36.80;101770.47;5067658;28;45433;-71
2023/05/19 05:58:58;;;;;;;;;5.25;3.25;;;;;21.88;37.00;101767.81;5076003;28;45701;-71
2023/05/19 06:01:23;;;;;;;;;5.00;5.00;;;;;21.88;37.24;101756.28;5068621;27;45544;-71
2023/05/19 06:03:48;;;;;;;;;6.75;4.75;;;;;21.88;36.98;101764.28;5066700;27;63673;-71
2023/05/19 06:06:14;;;;;;;;;4.75;4.75;;;;;21.88;36.76;101762.47;5059675;28;65651;-71
2023/05/19 06:08:39;;;;;;;;;5.25;5.25;;;;;21.88;36.75;101770.47;5048260;28;45437;-71
2023/05/19 06:11:07;;;;;;;;;5.00;5.00;;;;;21.90;36.87;101778.38;5067252;27;45501;-71
2023/05/19 06:13:37;;;;;;;;;6.25;5.00;;;;;21.89;37.05;101766.88;5052938;28;45384;-69
2023/05/19 06:16:03;;;;;;;;;4.00;4.00;;;;;21.90;37.39;101773.03;5071374;27;45561;-68
2023/05/19 06:18:28;;;;;;;;;4.75;4.75;;;;;21.89;37.64;101779.34;5070083;28;45548;-68
2023/05/19 06:20:54;;;;;;;;;5.25;4.00;;;;;21.91;37.77;101780.94;5067861;28;45491;-69
2023/05/19 06:23:19;;;;;;;;;6.00;4.00;;;;;21.90;37.75;101775.72;5057684;28;45578;-69
2023/05/19 06:25:44;;;;;;;;;7.50;5.00;;;;;21.91;38.31;101777.44;5064649;27;45474;-69
2023/05/19 06:28:10;;;;;;;;;6.00;5.75;;;;;21.90;38.15;101784.59;5067618;28;45355;-68
2023/05/19 06:30:35;;;;;;;;;7.75;5.75;;;;;21.92;38.14;101772.03;5064665;28;60774;-68
2023/05/19 06:33:02;;;;;;;;;5.25;3.50;;;;;21.93;37.80;101775.53;5059550;28;45483;-68
2023/05/19 06:35:27;;;;;;;;;5.00;5.00;;;;;21.93;38.35;101773.72;5062286;28;49903;-68
2023/05/19 06:37:55;;;;;;;;;2.75;2.75;;;;;21.94;37.77;101772.78;5067419;28;45377;-68
2023/05/19 06:40:20;;;;;;;;;6.50;4.75;;;;;21.96;38.36;101778.03;5052418;28;45607;-68
2023/05/19 06:42:45;;;;;;;;;6.75;5.50;;;;;21.96;38.40;101773.56;5066114;28;45329;-68
2023/05/19 06:45:11;;;;;;;;;7.00;4.00;;;;;21.96;38.36;101770.88;5070252;27;71732;-68
2023/05/19 06:47:36;;;;;;;;;5.25;4.50;;;;;21.97;38.53;101772.63;5060051;28;45387;-69
2023/05/19 06:50:02;;;;;;;;;6.00;4.25;;;;;22.00;38.55;101775.06;5088603;27;51864;-68
2023/05/19 06:52:27;;;;;;;;;4.25;4.25;;;;;22.01;38.24;101773.28;5069470;28;45477;-68
2023/05/19 06:54:53;;;;;;;;;13.50;8.00;;;;;22.03;38.15;101768.72;5067860;27;74568;-68
2023/05/19 06:57:18;;;;;;;;;10.75;9.00;;;;;22.02;37.47;101768.81;5071129;27;45407;-71
2023/05/19 06:59:45;;;;;;;;;13.50;8.75;;;;;22.00;37.30;101766.22;5067927;28;52472;-69
2023/05/19 07:02:10;;;;;;;;;9.25;7.25;;;;;21.97;37.25;101761.97;5047288;28;45461;-74
2023/05/19 07:04:36;;;;;;;;;14.25;10.75;;;;;21.98;36.41;101760.13;5066830;28;46605;-71
2023/05/19 07:07:01;;;;;;;;;12.75;10.00;;;;;21.93;36.23;101762.22;5063468;28;57985;-70
2023/05/19 07:09:27;;;;;;;;;13.25;9.75;;;;;21.91;36.09;101759.63;5065314;28;45396;-69
2023/05/19 07:11:52;;;;;;;;;13.25;10.25;;;;;21.88;35.87;101748.28;5070186;28;59250;-68
2023/05/19 07:14:17;;;;;;;;;13.25;9.25;;;;;21.86;36.16;101755.53;5072053;27;71547;-71
2023/05/19 07:16:43;;;;;;;;;13.00;11.00;;;;;21.85;36.13;101765.34;5073983;28;45386;-75
2023/05/19 07:19:08;;;;;;;;;13.00;12.00;;;;;21.80;35.82;101770.06;5074484;28;45558;-73
2023/05/19 07:21:33;;;;;;;;;10.50;7.50;;;;;21.79;35.77;101766.53;5066309;28;45384;-72
2023/05/19 07:23:59;;;;;;;;;12.75;10.75;;;;;21.76;35.54;101766.72;5073507;27;75426;-72
2023/05/19 07:26:25;;;;;;;;;13.75;10.50;;;;;21.75;35.52;101765.00;5069687;28;45423;-71
2023/05/19 07:28:51;;;;;;;;;14.75;12.50;;;;;21.70;35.31;101756.41;5071139;28;45366;-74
2023/05/19 07:31:16;;;;;;;;;10.50;10.50;;;;;21.70;35.56;101755.56;5055661;28;45302;-72
2023/05/19 07:33:41;;;;;;;;;10.00;9.25;;;;;21.66;35.46;101754.88;5071784;27;46096;-73
2023/05/19 07:36:07;;;;;;;;;15.50;12.25;;;;;21.64;35.74;101747.91;5069247;27;66578;-78
2023/05/19 07:38:33;;;;;;;;;17.75;10.25;;;;;21.63;35.88;101752.38;5060283;28;45477;-71
2023/05/19 07:41:01;;;;;;;;;11.50;11.00;;;;;21.64;35.23;101753.22;5062989;28;45347;-74
2023/05/19 07:43:27;;;;;;;;;13.25;11.75;;;;;21.60;35.58;101752.53;5062962;28;46548;-72
2023/05/19 07:45:53;;;;;;;;;16.25;13.50;;;;;21.57;35.03;101750.09;5051746;28;70371;-72
2023/05/19 07:48:21;;;;;;;;;17.75;13.00;;;;;21.57;35.64;101750.94;5062172;28;45699;-74
2023/05/19 07:50:47;;;;;;;;;15.00;11.00;;;;;21.56;35.51;101748.34;5072857;28;45702;-74
2023/05/19 07:53:12;;;;;;;;;11.75;11.00;;;;;21.53;35.49;101744.06;5080181;28;45486;-77
2023/05/19 07:55:37;;;;;;;;;14.75;10.25;;;;;21.53;35.35;101745.84;5079057;27;45359;-76
2023/05/19 07:58:03;;;;;;;;;12.75;10.25;;;;;21.52;35.30;101747.66;5072515;28;62078;-73
2023/05/19 08:00:28;;;;;;;;;19.50;12.00;;;;;21.48;35.68;101739.94;5076160;27;47647;-74
2023/05/19 08:02:55;;;;;;;;;13.50;12.25;;;;;21.54;35.56;101750.25;5071722;28;71480;-73
2023/05/19 08:05:21;;;;;;;;;14.50;11.00;;;;;21.51;35.80;101745.94;5070903;27;45645;-70
2023/05/19 08:07:46;;;;;;;;;16.25;15.50;;;;;21.50;35.13;101746.91;5070660;28;46041;-71
2023/05/19 08:10:11;;;;;;;;;26.25;16.25;;;;;21.48;35.14;101742.59;5072320;28;45408;-70
2023/05/19 08:12:37;;;;;;;;;21.25;15.50;;;;;21.48;35.44;101737.25;5056696;28;73129;-71
2023/05/19 08:15:02;;;;;;;;;16.50;13.50;;;;;21.48;35.06;101740.81;5051094;28;45730;-69
2023/05/19 08:17:28;;;;;;;;;17.50;14.25;;;;;21.47;35.69;101730.25;5077291;27;45485;-70
2023/05/19 08:19:53;;;;;;;;;15.75;12.75;;;;;21.47;35.71;101738.22;5073853;27;70740;-69
2023/05/19 08:22:18;;;;;;;;;16.50;12.75;;;;;21.47;35.48;101733.75;5056973;28;47156;-70
2023/05/19 08:24:44;;;;;;;;;15.50;11.25;;;;;21.48;35.54;101731.94;5067649;27;52284;-71
2023/05/19 08:27:10;;;;;;;;;14.00;10.00;;;;;21.50;35.96;101728.25;5076137;27;45405;-70
2023/05/19 08:29:36;;;;;;;;;14.75;11.25;;;;;21.55;35.57;101733.34;5075060;28;45569;-68
2023/05/19 08:32:02;;;;;;;;;14.25;11.75;;;;;21.55;35.55;101731.53;5080375;27;45524;-69
2023/05/19 08:34:27;;;;;;;;;13.00;10.00;;;;;21.59;35.96;101733.06;5068933;27;45485;-69
2023/05/19 08:36:56;;;;;;;;;13.50;11.00;;;;;21.61;36.48;101736.47;5068091;28;45516;-70
2023/05/19 08:39:25;;;;;;;;;14.50;10.50;;;;;21.64;36.53;101735.47;5076347;28;45549;-70
2023/05/19 08:41:51;;;;;;;;;10.75;10.00;;;;;21.68;35.90;101728.16;5058739;28;46458;-70
2023/05/19 08:44:17;;;;;;;;;13.25;10.25;;;;;21.71;35.86;101725.28;5057865;28;45711;-70
2023/05/19 08:46:42;;;;;;;;;11.00;10.50;;;;;21.73;36.01;101724.25;5064765;28;52211;-70
2023/05/19 08:49:13;;;;;;;;;11.25;8.75;;;;;21.74;35.98;101717.13;5067279;28;59598;-70
2023/05/19 08:51:49;;;;;;;;;14.75;10.75;;;;;21.79;36.03;101715.03;5067244;28;46092;-70
2023/05/19 08:54:16;;;;;;;;;12.75;10.50;;;;;21.79;36.12;101718.56;5051969;28;45708;-70
2023/05/19 08:56:43;;;;;;;;;10.25;9.25;;;;;21.79;36.07;101707.06;5057503;28;45366;-70
2023/05/19 08:59:09;;;;;;;;;12.50;7.00;;;;;21.83;36.30;101713.91;5052207;28;45502;-70
2023/05/19 09:01:35;;;;;;;;;6.75;4.00;;;;;21.84;36.06;101704.13;5063171;28;45683;-69
2023/05/19 09:04:01;;;;;;;;;9.75;9.75;;;;;21.83;36.12;101697.91;5069474;27;45450;-69
2023/05/19 09:06:31;;;;;;;;;11.50;8.75;;;;;21.87;36.31;101703.94;5060759;28;51879;-70
2023/05/19 09:08:56;;;;;;;;;11.25;8.00;;;;;21.87;36.49;101702.13;5065226;28;45507;-70
2023/05/19 09:11:21;;;;;;;;;10.75;8.75;;;;;21.88;36.15;101698.50;5069391;28;45467;-70
2023/05/19 09:13:48;;;;;;;;;10.00;9.50;;;;;21.92;36.16;101701.84;5053103;27;45495;-70
2023/05/19 09:16:13;;;;;;;;;8.00;7.00;;;;;21.96;36.26;101700.75;5073374;27;45996;-70
2023/05/19 09:18:39;;;;;;;;;7.00;7.00;;;;;21.94;36.74;101692.81;5059741;27;45765;-71
2023/05/19 09:21:06;;;;;;;;;12.00;9.00;;;;;21.96;36.30;101685.59;5073649;27;46963;-71
2023/05/19 09:23:34;;;;;;;;;7.75;7.00;;;;;21.99;36.86;101682.75;5066002;28;45518;-71
2023/05/19 09:26:07;;;;;;;;;9.25;8.25;;;;;22.02;36.62;101688.84;5068387;27;45689;-71
2023/05/19 09:28:34;;;;;;;;;9.00;7.50;;;;;22.04;36.76;101682.47;5063407;27;46586;-71
2023/05/19 09:31:07;;;;;;;;;8.00;5.75;;;;;22.04;36.56;101677.13;5062241;28;46415;-70
2023/05/19 09:33:37;;;;;;;;;8.00;7.00;;;;;22.06;37.03;101675.25;5064029;28;46042;-70
2023/05/19 09:36:07;;;;;;;;;8.00;7.00;;;;;22.09;36.75;101666.19;5066828;27;45504;-70
2023/05/19 09:38:33;;;;;;;;;6.50;6.25;;;;;22.05;36.62;101664.69;5069643;28;45995;-70
2023/05/19 09:40:59;;;;;;;;;9.50;7.00;;;;;22.12;36.95;101674.88;5064717;28;45664;-68
2023/05/19 09:43:29;;;;;;;;;7.00;5.00;;;;;22.14;37.00;101672.97;5080901;27;45960;-69
2023/05/19 09:46:00;;;;;;;;;7.75;5.75;;;;;22.14;37.09;101662.28;5058493;28;45495;-68
2023/05/19 09:48:26;;;;;;;;;8.00;5.00;;;;;22.18;36.77;101669.16;5060684;28;45345;-71
2023/05/19 09:50:53;;;;;;;;;5.75;4.25;;;;;22.20;37.00;101669.06;5066244;28;45742;-68
2023/05/19 09:53:19;;;;;;;;;8.75;5.00;;;;;22.22;37.07;101668.97;5066546;27;45398;-69
2023/05/19 09:55:44;;;;;;;;;9.00;6.00;;;;;22.23;36.94;101662.69;5073081;28;45537;-70
2023/05/19 09:58:15;;;;;;;;;5.00;5.00;;;;;22.25;36.95;101669.63;5060768;28;67981;-69
2023/05/19 10:00:41;;;;;;;;;7.00;6.00;;;;;22.27;37.08;101669.56;5066576;28;45715;-67
2023/05/19 10:03:07;;;;;;;;;7.50;7.50;;;;;22.30;36.58;101672.06;5062036;28;45322;-67
2023/05/19 10:05:33;;;;;;;;;8.50;8.50;;;;;22.28;36.95;101666.81;5074611;27;59297;-68
2023/05/19 10:07:59;;;;;;;;;8.25;6.75;;;;;22.31;36.53;101674.63;5064952;27;66629;-67
2023/05/19 10:10:26;;;;;;;;;9.25;8.75;;;;;22.32;36.69;101670.16;5070847;28;59225;-67
2023/05/19 10:12:53;;;;;;;;;14.00;9.75;;;;;22.31;36.03;101663.97;5075882;28;45487;-67
2023/05/19 10:15:21;;;;;;;;;9.50;7.75;;;;;22.32;36.49;101659.47;5076822;27;45455;-66
2023/05/19 10:17:51;;;;;;;;;10.50;9.00;;;;;22.31;36.30;101658.63;5056882;28;45692;-69
2023/05/19 10:20:17;;;;;;;;;11.25;8.25;;;;;22.32;36.46;101663.00;5067655;28;48240;-68
2023/05/19 10:22:44;;;;;;;;;8.25;7.75;;;;;22.33;35.51;101654.06;5075619;28;45332;-68
2023/05/19 10:25:11;;;;;;;;;9.50;7.50;;;;;22.35;35.88;101657.47;5067236;27;45343;-68
2023/05/19 10:27:43;;;;;;;;;9.00;6.00;;;;;22.35;35.54;101656.63;5057479;28;46888;-68
2023/05/19 10:30:16;;;;;;;;;9.50;6.00;;;;;22.34;35.51;101645.09;5056489;28;48157;-68
2023/05/19 10:32:43;;;;;;;;;8.50;7.25;;;;;22.33;35.22;101654.06;5042988;28;45211;-68
2023/05/19 10:35:14;;;;;;;;;7.25;6.25;;;;;22.34;35.32;101655.75;5070724;28;45361;-71
2023/05/19 10:37:51;;;;;;;;;8.50;8.00;;;;;22.28;35.10;101648.16;5055652;28;45684;-69
2023/05/19 10:40:32;;;;;;;;;10.25;8.75;;;;;22.26;33.92;101652.69;5066271;28;45862;-68
2023/05/19 10:43:07;;;;;;;;;9.75;9.00;;;;;22.20;33.61;101650.38;5059987;28;45939;-67
2023/05/19 10:45:41;;;;;;;;;10.25;8.25;;;;;22.11;34.09;101648.28;5071709;27;45407;-73
2023/05/19 10:48:11;;;;;;;;;15.25;11.25;;;;;22.05;33.71;101654.88;5052789;28;45583;-70
2023/05/19 10:50:36;;;;;;;;;13.50;9.25;;;;;21.94;33.98;101646.69;5071424;28;47269;-76
2023/05/19 10:53:02;;;;;;;;;10.50;8.50;;;;;21.89;34.34;101643.44;5071805;27;45281;-70
2023/05/19 10:55:45;;;;;;;;;9.50;7.00;;;;;21.90;34.31;101643.34;5068208;27;49572;-70
2023/05/19 10:58:10;;;;;;;;;14.25;11.25;;;;;21.90;34.88;101638.00;5054956;28;45376;-70
2023/05/19 11:00:38;;;;;;;;;12.50;11.25;;;;;21.92;34.71;101640.56;5047986;28;48482;-71
2023/05/19 11:03:12;;;;;;;;;10.50;10.50;;;;;21.94;34.23;101641.34;5061242;28;45344;-70
2023/05/19 11:05:38;;;;;;;;;12.50;9.00;;;;;21.93;34.56;101636.94;5067904;27;45339;-71
2023/05/19 11:08:06;;;;;;;;;8.75;7.50;;;;;21.95;34.29;101638.56;5074723;28;45285;-69
2023/05/19 11:10:32;;;;;;;;;8.75;8.00;;;;;21.95;35.00;101633.22;5069337;27;45509;-76
2023/05/19 11:12:58;;;;;;;;;12.50;10.00;;;;;21.99;34.90;101626.78;5067482;28;45395;-69
2023/05/19 11:15:26;;;;;;;;;12.00;8.25;;;;;21.97;34.41;101630.47;5056066;28;45585;-67
2023/05/19 11:17:52;;;;;;;;;10.25;8.50;;;;;22.01;34.71;101626.69;5075065;28;45248;-70
2023/05/19 11:20:25;;;;;;;;;12.00;7.50;;;;;22.04;35.09;101625.63;5092070;27;48062;-70